Cairnwell, United Kingdom
Current Conditions -  °F | °C
As of 5:50 AM on Sunday 26 Oct 2014 (Local Time) from EGQL Reporting Station
Few Clouds Few Clouds  
Wind Chill: 54°   Ceiling: Unl
Heat Index: 54°   Visibility: 6mi
Dew Point: 46°   Wind: 31mph
Humidity: 77%   Direction: 250°WSW
Pressure: 29.59"   Gusts: 43mph
Location:  56.88°N, 3.42°W
Report Text: EGQL 260450Z 25027G37KT 9999 FEW030 12/08 Q1002 BLU
Loading
Personal Weather Stations






























Interactive Weather Map
Tropical Storm Tracking
New forecast layout! Learn more

10-Day Weather Forecast

Advertisements
Track Severe Weather on mobile